Hoxeyville, Michigan
Current Conditions -  °F | °C
As of 3:15 PM on Sunday 25 Jan 2015 (Local Time) from KCAD Reporting Station
Clear Clear  
Wind Chill:   Ceiling: Unl
Heat Index: 18°   Visibility: 10mi
Dew Point:   Wind: 7mph
Humidity: 51%   Direction: 40°NE
Pressure: 29.93"   Gusts: NA
Location:  44.2433°N, 85.5328°W
Report Text: KCAD 252015Z AUTO 04006KT 10SM CLR M07/M16 A2993 RMK AO2 T10801166
Loading
Personal Weather Stations






























Interactive Weather Map New forecast layout! Learn more

10-Day Weather Forecast

Advertisements
Track Severe Weather on mobile